sensor_id;sensor_type;location;lat;lon;timestamp;pressure;altitude;pressure_sealevel;temperature;humidity
24858;BME280;12935;50.782;6.074;2022-11-30T00:01:14;100051.59;;;6.19;100.00
24858;BME280;12935;50.782;6.074;2022-11-30T00:03:40;100056.66;;;6.21;100.00
24858;BME280;12935;50.782;6.074;2022-11-30T00:06:07;100047.19;;;6.15;100.00
24858;BME280;12935;50.782;6.074;2022-11-30T00:08:33;100051.69;;;6.07;100.00
24858;BME280;12935;50.782;6.074;2022-11-30T00:10:58;100057.91;;;6.08;100.00
24858;BME280;12935;50.782;6.074;2022-11-30T00:13:23;100048.19;;;6.22;100.00
24858;BME280;12935;50.782;6.074;2022-11-30T00:15:48;100044.94;;;6.17;100.00
24858;BME280;12935;50.782;6.074;2022-11-30T00:18:14;100053.84;;;6.17;100.00
24858;BME280;12935;50.782;6.074;2022-11-30T00:20:42;100055.53;;;6.22;100.00
24858;BME280;12935;50.782;6.074;2022-11-30T00:23:07;100050.00;;;6.34;100.00
24858;BME280;12935;50.782;6.074;2022-11-30T00:25:34;100049.31;;;6.37;100.00
24858;BME280;12935;50.782;6.074;2022-11-30T00:28:00;100048.16;;;6.38;100.00
24858;BME280;12935;50.782;6.074;2022-11-30T00:30:25;100040.97;;;6.30;100.00
24858;BME280;12935;50.782;6.074;2022-11-30T00:32:55;100044.13;;;6.32;100.00
24858;BME280;12935;50.782;6.074;2022-11-30T00:35:21;100033.81;;;6.38;100.00
24858;BME280;12935;50.782;6.074;2022-11-30T00:37:46;100034.91;;;6.52;100.00
24858;BME280;12935;50.782;6.074;2022-11-30T00:40:12;100035.72;;;6.53;100.00
24858;BME280;12935;50.782;6.074;2022-11-30T00:42:37;100036.41;;;6.50;100.00
24858;BME280;12935;50.782;6.074;2022-11-30T00:45:03;100049.34;;;6.72;100.00
24858;BME280;12935;50.782;6.074;2022-11-30T00:47:28;100049.09;;;6.61;100.00
24858;BME280;12935;50.782;6.074;2022-11-30T00:49:53;100044.28;;;6.55;100.00
24858;BME280;12935;50.782;6.074;2022-11-30T00:52:18;100054.00;;;6.56;100.00
24858;BME280;12935;50.782;6.074;2022-11-30T00:54:44;100048.75;;;6.47;100.00
24858;BME280;12935;50.782;6.074;2022-11-30T00:57:09;100042.63;;;6.50;100.00
24858;BME280;12935;50.782;6.074;2022-11-30T00:59:34;100051.66;;;6.54;100.00
24858;BME280;12935;50.782;6.074;2022-11-30T01:01:59;100043.59;;;6.58;100.00
24858;BME280;12935;50.782;6.074;2022-11-30T01:04:25;100035.97;;;6.48;100.00
24858;BME280;12935;50.782;6.074;2022-11-30T01:06:50;100048.50;;;6.37;100.00
24858;BME280;12935;50.782;6.074;2022-11-30T01:09:15;100050.63;;;6.27;100.00
24858;BME280;12935;50.782;6.074;2022-11-30T01:11:40;100055.97;;;6.24;100.00
24858;BME280;12935;50.782;6.074;2022-11-30T01:14:06;100049.75;;;6.23;100.00
24858;BME280;12935;50.782;6.074;2022-11-30T01:16:32;100058.34;;;6.25;100.00
24858;BME280;12935;50.782;6.074;2022-11-30T01:18:58;100050.53;;;6.24;100.00
24858;BME280;12935;50.782;6.074;2022-11-30T01:21:26;100054.41;;;6.23;100.00
24858;BME280;12935;50.782;6.074;2022-11-30T01:23:52;100065.16;;;6.19;100.00
24858;BME280;12935;50.782;6.074;2022-11-30T01:26:18;100061.56;;;6.15;100.00
24858;BME280;12935;50.782;6.074;2022-11-30T01:28:48;100062.00;;;6.17;100.00
24858;BME280;12935;50.782;6.074;2022-11-30T01:31:13;100069.69;;;6.15;100.00
24858;BME280;12935;50.782;6.074;2022-11-30T01:33:39;100060.97;;;6.22;100.00
24858;BME280;12935;50.782;6.074;2022-11-30T01:38:36;100065.78;;;6.28;100.00
24858;BME280;12935;50.782;6.074;2022-11-30T01:41:02;100046.41;;;6.14;100.00
24858;BME280;12935;50.782;6.074;2022-11-30T01:43:43;100052.13;;;6.25;100.00
24858;BME280;12935;50.782;6.074;2022-11-30T01:48:43;100050.69;;;6.15;100.00
24858;BME280;12935;50.782;6.074;2022-11-30T01:51:09;100055.00;;;6.16;100.00
24858;BME280;12935;50.782;6.074;2022-11-30T01:53:34;100047.13;;;6.11;100.00
24858;BME280;12935;50.782;6.074;2022-11-30T01:55:59;100050.63;;;6.12;100.00
24858;BME280;12935;50.782;6.074;2022-11-30T01:58:27;100053.69;;;6.10;100.00
24858;BME280;12935;50.782;6.074;2022-11-30T02:00:53;100056.75;;;6.09;100.00
24858;BME280;12935;50.782;6.074;2022-11-30T02:03:31;100058.69;;;6.08;100.00
24858;BME280;12935;50.782;6.074;2022-11-30T02:05:59;100060.69;;;6.11;100.00
24858;BME280;12935;50.782;6.074;2022-11-30T02:08:25;100044.78;;;6.10;100.00
24858;BME280;12935;50.782;6.074;2022-11-30T02:10:53;100056.75;;;6.09;100.00
24858;BME280;12935;50.782;6.074;2022-11-30T02:13:37;100053.34;;;6.12;100.00
24858;BME280;12935;50.782;6.074;2022-11-30T02:19:02;100056.41;;;6.10;100.00
24858;BME280;12935;50.782;6.074;2022-11-30T02:21:42;100056.31;;;6.07;100.00
24858;BME280;12935;50.782;6.074;2022-11-30T02:27:04;100052.38;;;6.04;100.00
24858;BME280;12935;50.782;6.074;2022-11-30T02:32:08;100059.28;;;6.02;100.00
24858;BME280;12935;50.782;6.074;2022-11-30T02:34:36;100056.50;;;5.98;100.00
24858;BME280;12935;50.782;6.074;2022-11-30T02:37:04;100056.22;;;6.03;100.00
24858;BME280;12935;50.782;6.074;2022-11-30T02:39:31;100055.34;;;5.99;100.00
24858;BME280;12935;50.782;6.074;2022-11-30T02:41:56;100052.91;;;5.94;100.00
24858;BME280;12935;50.782;6.074;2022-11-30T02:44:22;100061.81;;;5.94;100.00
24858;BME280;12935;50.782;6.074;2022-11-30T02:49:39;100042.84;;;5.94;100.00
24858;BME280;12935;50.782;6.074;2022-11-30T02:52:09;100051.31;;;5.93;100.00
24858;BME280;12935;50.782;6.074;2022-11-30T02:54:35;100042.22;;;6.01;100.00
24858;BME280;12935;50.782;6.074;2022-11-30T02:57:01;100047.63;;;6.01;100.00
24858;BME280;12935;50.782;6.074;2022-11-30T02:59:26;100050.78;;;6.03;100.00
24858;BME280;12935;50.782;6.074;2022-11-30T03:01:52;100043.53;;;6.07;100.00
24858;BME280;12935;50.782;6.074;2022-11-30T03:04:17;100044.69;;;6.06;100.00
24858;BME280;12935;50.782;6.074;2022-11-30T03:06:42;100042.84;;;6.10;100.00
24858;BME280;12935;50.782;6.074;2022-11-30T03:09:08;100043.97;;;6.09;100.00
24858;BME280;12935;50.782;6.074;2022-11-30T03:11:33;100043.53;;;6.07;100.00
24858;BME280;12935;50.782;6.074;2022-11-30T03:13:58;100053.94;;;6.05;100.00
24858;BME280;12935;50.782;6.074;2022-11-30T03:16:24;100058.94;;;6.03;100.00
24858;BME280;12935;50.782;6.074;2022-11-30T03:18:49;100057.00;;;6.04;100.00
24858;BME280;12935;50.782;6.074;2022-11-30T03:21:14;100049.75;;;6.08;100.00
24858;BME280;12935;50.782;6.074;2022-11-30T03:23:39;100047.38;;;6.06;100.00
24858;BME280;12935;50.782;6.074;2022-11-30T03:26:06;100051.13;;;6.02;100.00
24858;BME280;12935;50.782;6.074;2022-11-30T03:28:32;100054.19;;;6.00;100.00
24858;BME280;12935;50.782;6.074;2022-11-30T03:30:57;100049.13;;;5.98;100.00
24858;BME280;12935;50.782;6.074;2022-11-30T03:33:23;100049.91;;;5.99;100.00
24858;BME280;12935;50.782;6.074;2022-11-30T03:36:00;100064.34;;;6.03;100.00
24858;BME280;12935;50.782;6.074;2022-11-30T03:38:26;100055.88;;;6.05;100.00
24858;BME280;12935;50.782;6.074;2022-11-30T03:41:01;100060.16;;;6.06;100.00
24858;BME280;12935;50.782;6.074;2022-11-30T03:43:27;100059.28;;;6.02;100.00
24858;BME280;12935;50.782;6.074;2022-11-30T03:45:52;100061.19;;;6.01;100.00
24858;BME280;12935;50.782;6.074;2022-11-30T03:48:18;100065.16;;;6.04;100.00
24858;BME280;12935;50.782;6.074;2022-11-30T03:50:43;100058.25;;;6.06;100.00
24858;BME280;12935;50.782;6.074;2022-11-30T03:53:14;100057.34;;;6.02;100.00
24858;BME280;12935;50.782;6.074;2022-11-30T03:55:39;100061.19;;;6.01;100.00
24858;BME280;12935;50.782;6.074;2022-11-30T03:58:04;100061.56;;;6.15;100.00
24858;BME280;12935;50.782;6.074;2022-11-30T04:00:29;100054.50;;;6.11;100.00
24858;BME280;12935;50.782;6.074;2022-11-30T04:02:55;100064.44;;;6.07;100.00
24858;BME280;12935;50.782;6.074;2022-11-30T04:05:20;100067.25;;;6.10;100.00
24858;BME280;12935;50.782;6.074;2022-11-30T04:07:46;100062.88;;;6.06;100.00
24858;BME280;12935;50.782;6.074;2022-11-30T04:10:11;100064.34;;;6.03;100.00
24858;BME280;12935;50.782;6.074;2022-11-30T04:12:37;100064.69;;;6.02;100.00
24858;BME280;12935;50.782;6.074;2022-11-30T04:15:02;100062.88;;;6.06;100.00
24858;BME280;12935;50.782;6.074;2022-11-30T04:17:28;100063.22;;;6.04;100.00
24858;BME280;12935;50.782;6.074;2022-11-30T04:19:53;100068.41;;;6.09;100.00
24858;BME280;12935;50.782;6.074;2022-11-30T04:22:18;100071.47;;;6.08;100.00
24858;BME280;12935;50.782;6.074;2022-11-30T04:24:43;100064.00;;;6.05;100.00
24858;BME280;12935;50.782;6.074;2022-11-30T04:27:09;100060.59;;;6.08;100.00
24858;BME280;12935;50.782;6.074;2022-11-30T04:29:34;100063.31;;;6.08;100.00
24858;BME280;12935;50.782;6.074;2022-11-30T04:31:59;100064.56;;;6.10;100.00
24858;BME280;12935;50.782;6.074;2022-11-30T04:34:24;100063.41;;;6.11;100.00
24858;BME280;12935;50.782;6.074;2022-11-30T04:36:52;100064.66;;;6.14;100.00
24858;BME280;12935;50.782;6.074;2022-11-30T04:39:17;100065.00;;;6.12;100.00
24858;BME280;12935;50.782;6.074;2022-11-30T04:41:43;100061.03;;;6.10;100.00
24858;BME280;12935;50.782;6.074;2022-11-30T04:44:08;100050.34;;;6.01;100.00
24858;BME280;12935;50.782;6.074;2022-11-30T04:46:35;100076.25;;;6.14;100.00
24858;BME280;12935;50.782;6.074;2022-11-30T04:49:00;100068.41;;;6.09;100.00
24858;BME280;12935;50.782;6.074;2022-11-30T04:51:26;100067.97;;;6.07;100.00
24858;BME280;12935;50.782;6.074;2022-11-30T04:53:51;100072.69;;;6.10;100.00
24858;BME280;12935;50.782;6.074;2022-11-30T04:56:16;100067.16;;;6.07;100.00
24858;BME280;12935;50.782;6.074;2022-11-30T04:58:42;100069.63;;;6.12;100.00
24858;BME280;12935;50.782;6.074;2022-11-30T05:01:07;100072.25;;;6.08;100.00
24858;BME280;12935;50.782;6.074;2022-11-30T05:03:32;100069.53;;;6.08;100.00
24858;BME280;12935;50.782;6.074;2022-11-30T05:05:58;100067.59;;;6.09;100.00
24858;BME280;12935;50.782;6.074;2022-11-30T05:08:23;100065.00;;;6.12;100.00
24858;BME280;12935;50.782;6.074;2022-11-30T05:10:52;100064.91;;;6.09;100.00
24858;BME280;12935;50.782;6.074;2022-11-30T05:13:18;100064.09;;;6.08;100.00
24858;BME280;12935;50.782;6.074;2022-11-30T05:15:44;100073.38;;;6.07;100.00
24858;BME280;12935;50.782;6.074;2022-11-30T05:18:09;100068.06;;;6.11;100.00
24858;BME280;12935;50.782;6.074;2022-11-30T05:20:35;100064.19;;;6.12;100.00
24858;BME280;12935;50.782;6.074;2022-11-30T05:23:00;100056.66;;;6.05;100.00
24858;BME280;12935;50.782;6.074;2022-11-30T05:25:25;100063.75;;;6.10;100.00
24858;BME280;12935;50.782;6.074;2022-11-30T05:27:50;100067.59;;;6.09;100.00
24858;BME280;12935;50.782;6.074;2022-11-30T05:30:16;100072.25;;;6.08;100.00
24858;BME280;12935;50.782;6.074;2022-11-30T05:32:41;100069.88;;;6.07;100.00
24858;BME280;12935;50.782;6.074;2022-11-30T05:35:07;100064.91;;;6.09;100.00
24858;BME280;12935;50.782;6.074;2022-11-30T05:37:32;100077.03;;;6.15;100.00
24858;BME280;12935;50.782;6.074;2022-11-30T05:39:57;100064.72;;;6.17;100.00
24858;BME280;12935;50.782;6.074;2022-11-30T05:42:23;100080.19;;;6.17;100.00
24858;BME280;12935;50.782;6.074;2022-11-30T05:44:48;100076.69;;;6.16;100.00
24858;BME280;12935;50.782;6.074;2022-11-30T05:47:15;100081.44;;;6.19;100.00
24858;BME280;12935;50.782;6.074;2022-11-30T05:49:40;100082.75;;;6.25;100.00
24858;BME280;12935;50.782;6.074;2022-11-30T05:52:05;100073.63;;;6.33;100.00
24858;BME280;12935;50.782;6.074;2022-11-30T05:54:32;100085.03;;;6.55;100.00
24858;BME280;12935;50.782;6.074;2022-11-30T05:56:57;100086.06;;;6.66;100.00
24858;BME280;12935;50.782;6.074;2022-11-30T05:59:23;100085.78;;;6.71;100.00
24858;BME280;12935;50.782;6.074;2022-11-30T06:01:50;100084.88;;;6.83;100.00
24858;BME280;12935;50.782;6.074;2022-11-30T06:04:15;100095.91;;;6.90;100.00
24858;BME280;12935;50.782;6.074;2022-11-30T06:06:41;100087.94;;;6.81;100.00
24858;BME280;12935;50.782;6.074;2022-11-30T06:09:06;100094.41;;;6.57;100.00
24858;BME280;12935;50.782;6.074;2022-11-30T06:11:32;100094.84;;;6.59;100.00
24858;BME280;12935;50.782;6.074;2022-11-30T06:13:57;100100.69;;;6.46;100.00
24858;BME280;12935;50.782;6.074;2022-11-30T06:16:22;100099.03;;;6.57;100.00
24858;BME280;12935;50.782;6.074;2022-11-30T06:18:47;100097.53;;;6.59;100.00
24858;BME280;12935;50.782;6.074;2022-11-30T06:21:13;100101.91;;;6.64;100.00
24858;BME280;12935;50.782;6.074;2022-11-30T06:23:38;100108.22;;;6.52;100.00
24858;BME280;12935;50.782;6.074;2022-11-30T06:26:08;100103.06;;;6.47;100.00
24858;BME280;12935;50.782;6.074;2022-11-30T06:28:34;100106.84;;;6.43;100.00
24858;BME280;12935;50.782;6.074;2022-11-30T06:31:00;100110.00;;;6.45;100.00
24858;BME280;12935;50.782;6.074;2022-11-30T06:33:26;100111.81;;;6.41;100.00
24858;BME280;12935;50.782;6.074;2022-11-30T06:35:52;100110.59;;;6.38;100.00
24858;BME280;12935;50.782;6.074;2022-11-30T06:38:17;100115.69;;;6.40;100.00
24858;BME280;12935;50.782;6.074;2022-11-30T06:40:43;100119.63;;;6.42;100.00
24858;BME280;12935;50.782;6.074;2022-11-30T06:43:08;100114.78;;;6.36;100.00
24858;BME280;12935;50.782;6.074;2022-11-30T06:45:33;100118.81;;;6.26;100.00
24858;BME280;12935;50.782;6.074;2022-11-30T06:47:58;100118.53;;;6.31;100.00
24858;BME280;12935;50.782;6.074;2022-11-30T06:50:24;100116.81;;;6.39;100.00
24858;BME280;12935;50.782;6.074;2022-11-30T06:52:49;100120.75;;;6.41;100.00
24858;BME280;12935;50.782;6.074;2022-11-30T06:55:15;100119.63;;;6.42;100.00
24858;BME280;12935;50.782;6.074;2022-11-30T06:57:40;100122.41;;;6.46;100.00
24858;BME280;12935;50.782;6.074;2022-11-30T07:00:06;100125.91;;;6.46;100.00
24858;BME280;12935;50.782;6.074;2022-11-30T07:02:32;100130.53;;;6.30;100.00
24858;BME280;12935;50.782;6.074;2022-11-30T07:04:58;100132.84;;;6.28;100.00
24858;BME280;12935;50.782;6.074;2022-11-30T07:07:23;100131.94;;;6.24;100.00
24858;BME280;12935;50.782;6.074;2022-11-30T07:09:49;100147.19;;;6.28;100.00
24858;BME280;12935;50.782;6.074;2022-11-30T07:12:15;100144.19;;;6.33;100.00
24858;BME280;12935;50.782;6.074;2022-11-30T07:14:40;100145.53;;;6.24;100.00
24858;BME280;12935;50.782;6.074;2022-11-30T07:17:05;100154.19;;;6.29;100.00
24858;BME280;12935;50.782;6.074;2022-11-30T07:19:31;100151.28;;;6.22;100.00
24858;BME280;12935;50.782;6.074;2022-11-30T07:21:58;100144.53;;;6.16;100.00
24858;BME280;12935;50.782;6.074;2022-11-30T07:24:23;100153.47;;;6.17;100.00
24858;BME280;12935;50.782;6.074;2022-11-30T07:27:07;100168.09;;;6.12;100.00
24858;BME280;12935;50.782;6.074;2022-11-30T07:29:33;100167.66;;;6.26;100.00
24858;BME280;12935;50.782;6.074;2022-11-30T07:31:58;100166.19;;;6.28;100.00
24858;BME280;12935;50.782;6.074;2022-11-30T07:34:24;100174.56;;;6.23;100.00
24858;BME280;12935;50.782;6.074;2022-11-30T07:36:49;100165.75;;;6.26;100.00
24858;BME280;12935;50.782;6.074;2022-11-30T07:39:14;100177.84;;;6.29;100.00
24858;BME280;12935;50.782;6.074;2022-11-30T07:41:40;100177.91;;;6.32;100.00
24858;BME280;12935;50.782;6.074;2022-11-30T07:44:07;100173.47;;;6.40;100.00
24858;BME280;12935;50.782;6.074;2022-11-30T07:46:33;100168.03;;;6.56;100.00
24858;BME280;12935;50.782;6.074;2022-11-30T07:49:01;100174.75;;;6.46;100.00
24858;BME280;12935;50.782;6.074;2022-11-30T07:51:26;100179.16;;;6.51;100.00
24858;BME280;12935;50.782;6.074;2022-11-30T07:53:54;100176.09;;;6.68;100.00
24858;BME280;12935;50.782;6.074;2022-11-30T07:56:20;100179.25;;;6.86;100.00
24858;BME280;12935;50.782;6.074;2022-11-30T07:58:46;100179.84;;;6.95;100.00
24858;BME280;12935;50.782;6.074;2022-11-30T08:01:17;100171.72;;;6.79;100.00
24858;BME280;12935;50.782;6.074;2022-11-30T08:03:43;100177.50;;;6.78;100.00
24858;BME280;12935;50.782;6.074;2022-11-30T08:06:11;100185.72;;;6.81;100.00
24858;BME280;12935;50.782;6.074;2022-11-30T08:08:39;100187.22;;;6.94;100.00
24858;BME280;12935;50.782;6.074;2022-11-30T08:11:07;100188.34;;;6.93;100.00
24858;BME280;12935;50.782;6.074;2022-11-30T08:13:32;100192.84;;;6.70;100.00
24858;BME280;12935;50.782;6.074;2022-11-30T08:16:10;100189.41;;;6.42;100.00
24858;BME280;12935;50.782;6.074;2022-11-30T08:18:37;100197.19;;;6.27;100.00
24858;BME280;12935;50.782;6.074;2022-11-30T08:21:04;100195.75;;;6.18;100.00
24858;BME280;12935;50.782;6.074;2022-11-30T08:23:32;100194.03;;;6.25;100.00
24858;BME280;12935;50.782;6.074;2022-11-30T08:26:02;100200.13;;;6.22;100.00
24858;BME280;12935;50.782;6.074;2022-11-30T08:28:29;100189.28;;;6.22;100.00
24858;BME280;12935;50.782;6.074;2022-11-30T08:30:58;100205.13;;;6.20;100.00
24858;BME280;12935;50.782;6.074;2022-11-30T08:33:24;100204.06;;;6.09;100.00
24858;BME280;12935;50.782;6.074;2022-11-30T08:35:50;100200.88;;;6.07;100.00
24858;BME280;12935;50.782;6.074;2022-11-30T08:38:15;100200.34;;;6.02;100.00
24858;BME280;12935;50.782;6.074;2022-11-30T08:40:40;100201.06;;;6.14;100.00
24858;BME280;12935;50.782;6.074;2022-11-30T08:43:05;100207.22;;;6.11;100.00
24858;BME280;12935;50.782;6.074;2022-11-30T08:45:32;100215.78;;;6.13;100.00
24858;BME280;12935;50.782;6.074;2022-11-30T08:47:57;100217.34;;;6.14;100.00
24858;BME280;12935;50.782;6.074;2022-11-30T08:50:22;100217.94;;;6.36;100.00
24858;BME280;12935;50.782;6.074;2022-11-30T08:52:47;100214.63;;;6.42;100.00
24858;BME280;12935;50.782;6.074;2022-11-30T08:55:13;100212.59;;;6.39;100.00
24858;BME280;12935;50.782;6.074;2022-11-30T08:57:38;100209.72;;;6.48;100.00
24858;BME280;12935;50.782;6.074;2022-11-30T09:00:04;100220.22;;;6.49;100.00
24858;BME280;12935;50.782;6.074;2022-11-30T09:02:30;100212.53;;;6.51;100.00
24858;BME280;12935;50.782;6.074;2022-11-30T09:04:55;100222.81;;;6.74;100.00
24858;BME280;12935;50.782;6.074;2022-11-30T09:07:20;100224.88;;;6.96;100.00
24858;BME280;12935;50.782;6.074;2022-11-30T09:09:46;100211.66;;;6.94;100.00
24858;BME280;12935;50.782;6.074;2022-11-30T09:12:11;100213.53;;;6.90;100.00
24858;BME280;12935;50.782;6.074;2022-11-30T09:14:36;100222.13;;;6.77;100.00
24858;BME280;12935;50.782;6.074;2022-11-30T09:17:02;100229.03;;;6.74;100.00
24858;BME280;12935;50.782;6.074;2022-11-30T09:19:28;100236.09;;;6.63;100.00
24858;BME280;12935;50.782;6.074;2022-11-30T09:21:53;100236.81;;;6.60;100.00
24858;BME280;12935;50.782;6.074;2022-11-30T09:24:19;100229.00;;;6.58;100.00
24858;BME280;12935;50.782;6.074;2022-11-30T09:26:45;100231.13;;;6.81;100.00
24858;BME280;12935;50.782;6.074;2022-11-30T09:29:10;100231.75;;;6.90;100.00
24858;BME280;12935;50.782;6.074;2022-11-30T09:31:35;100237.97;;;7.06;100.00
24858;BME280;12935;50.782;6.074;2022-11-30T09:34:00;100227.25;;;6.97;100.00
24858;BME280;12935;50.782;6.074;2022-11-30T09:36:26;100232.78;;;7.17;100.00
24858;BME280;12935;50.782;6.074;2022-11-30T09:38:52;100231.63;;;7.33;100.00
24858;BME280;12935;50.782;6.074;2022-11-30T09:46:37;100236.09;;;7.26;100.00
24858;BME280;12935;50.782;6.074;2022-11-30T09:49:16;100242.94;;;7.20;100.00
24858;BME280;12935;50.782;6.074;2022-11-30T09:51:45;100247.75;;;7.26;100.00
24858;BME280;12935;50.782;6.074;2022-11-30T09:54:14;100247.31;;;7.24;100.00
24858;BME280;12935;50.782;6.074;2022-11-30T09:56:41;100247.41;;;6.96;100.00
24858;BME280;12935;50.782;6.074;2022-11-30T10:01:42;100248.88;;;7.25;100.00
24858;BME280;12935;50.782;6.074;2022-11-30T10:04:19;100243.25;;;7.50;100.00
24858;BME280;12935;50.782;6.074;2022-11-30T10:06:55;100227.69;;;6.99;100.00
24858;BME280;12935;50.782;6.074;2022-11-30T10:09:25;100242.88;;;6.85;100.00
24858;BME280;12935;50.782;6.074;2022-11-30T10:12:01;100236.91;;;6.79;100.00
24858;BME280;12935;50.782;6.074;2022-11-30T10:14:31;100245.69;;;7.04;100.00
24858;BME280;12935;50.782;6.074;2022-11-30T10:25:28;100238.03;;;7.10;100.00
24858;BME280;12935;50.782;6.074;2022-11-30T10:28:14;100238.91;;;7.14;100.00
24858;BME280;12935;50.782;6.074;2022-11-30T10:30:40;100235.31;;;6.78;100.00
24858;BME280;12935;50.782;6.074;2022-11-30T10:33:26;100235.94;;;6.87;100.00
24858;BME280;12935;50.782;6.074;2022-11-30T10:36:05;100238.13;;;6.82;100.00
24858;BME280;12935;50.782;6.074;2022-11-30T10:38:43;100234.00;;;6.56;100.00
24858;BME280;12935;50.782;6.074;2022-11-30T10:41:16;100231.38;;;6.60;100.00
24858;BME280;12935;50.782;6.074;2022-11-30T10:43:47;100224.63;;;6.69;100.00
24858;BME280;12935;50.782;6.074;2022-11-30T10:46:25;100223.75;;;6.81;100.00
24858;BME280;12935;50.782;6.074;2022-11-30T10:49:02;100218.22;;;6.78;100.00
24858;BME280;12935;50.782;6.074;2022-11-30T10:51:30;100225.69;;;6.81;100.00
24858;BME280;12935;50.782;6.074;2022-11-30T10:53:57;100217.03;;;6.75;100.00
24858;BME280;12935;50.782;6.074;2022-11-30T10:56:24;100226.81;;;6.80;100.00
24858;BME280;12935;50.782;6.074;2022-11-30T10:58:59;100223.84;;;6.69;100.00
24858;BME280;12935;50.782;6.074;2022-11-30T11:04:17;100227.00;;;6.71;100.00
24858;BME280;12935;50.782;6.074;2022-11-30T11:06:46;100220.94;;;6.78;100.00
24858;BME280;12935;50.782;6.074;2022-11-30T11:09:47;100217.44;;;6.61;100.00
24858;BME280;12935;50.782;6.074;2022-11-30T11:12:17;100217.81;;;6.60;100.00
24858;BME280;12935;50.782;6.074;2022-11-30T11:14:43;100222.81;;;6.74;100.00
24858;BME280;12935;50.782;6.074;2022-11-30T11:19:45;100210.28;;;6.85;100.00
24858;BME280;12935;50.782;6.074;2022-11-30T11:22:18;100215.94;;;6.64;100.00
24858;BME280;12935;50.782;6.074;2022-11-30T11:24:45;100209.91;;;6.55;100.00
24858;BME280;12935;50.782;6.074;2022-11-30T11:27:20;100214.72;;;6.77;100.00
24858;BME280;12935;50.782;6.074;2022-11-30T11:29:57;100221.22;;;6.73;100.00
24858;BME280;12935;50.782;6.074;2022-11-30T11:32:24;100221.56;;;6.71;100.00
24858;BME280;12935;50.782;6.074;2022-11-30T11:34:50;100222.00;;;6.73;100.00
24858;BME280;12935;50.782;6.074;2022-11-30T11:37:31;100223.50;;;6.71;100.00
24858;BME280;12935;50.782;6.074;2022-11-30T11:42:25;100231.19;;;6.68;100.00
24858;BME280;12935;50.782;6.074;2022-11-30T11:44:52;100233.69;;;6.89;100.00
24858;BME280;12935;50.782;6.074;2022-11-30T11:47:25;100218.94;;;6.75;100.00
24858;BME280;12935;50.782;6.074;2022-11-30T11:50:03;100228.94;;;6.71;100.00
24858;BME280;12935;50.782;6.074;2022-11-30T11:52:29;100239.44;;;6.56;100.00
24858;BME280;12935;50.782;6.074;2022-11-30T11:54:57;100239.44;;;6.56;100.00
24858;BME280;12935;50.782;6.074;2022-11-30T11:57:39;100235.22;;;6.59;100.00
24858;BME280;12935;50.782;6.074;2022-11-30T12:03:00;100231.28;;;6.56;100.00
24858;BME280;12935;50.782;6.074;2022-11-30T12:05:30;100223.94;;;6.57;100.00
24858;BME280;12935;50.782;6.074;2022-11-30T12:10:58;100221.47;;;6.67;100.00
24858;BME280;12935;50.782;6.074;2022-11-30T12:13:32;100232.44;;;6.71;100.00
24858;BME280;12935;50.782;6.074;2022-11-30T12:21:59;100218.75;;;6.52;100.00
24858;BME280;12935;50.782;6.074;2022-11-30T12:27:03;100195.38;;;6.63;100.00
24858;BME280;12935;50.782;6.074;2022-11-30T12:32:34;100214.22;;;6.72;100.00
24858;BME280;12935;50.782;6.074;2022-11-30T12:40:46;100212.72;;;6.74;100.00
24858;BME280;12935;50.782;6.074;2022-11-30T12:49:07;100220.53;;;7.07;100.00
24858;BME280;12935;50.782;6.074;2022-11-30T12:54:58;100216.38;;;7.13;100.00
24858;BME280;12935;50.782;6.074;2022-11-30T12:59:56;100214.31;;;7.07;100.00
24858;BME280;12935;50.782;6.074;2022-11-30T13:05:06;100211.66;;;7.10;100.00
24858;BME280;12935;50.782;6.074;2022-11-30T13:07:45;100210.78;;;7.06;100.00
24858;BME280;12935;50.782;6.074;2022-11-30T13:10:36;100217.63;;;7.00;100.00
24858;BME280;12935;50.782;6.074;2022-11-30T13:13:05;100209.72;;;6.79;100.00
24858;BME280;12935;50.782;6.074;2022-11-30T13:15:37;100209.13;;;6.86;100.00
24858;BME280;12935;50.782;6.074;2022-11-30T13:18:05;100208.53;;;6.92;100.00
24858;BME280;12935;50.782;6.074;2022-11-30T13:20:59;100205.03;;;6.92;100.00
24858;BME280;12935;50.782;6.074;2022-11-30T13:26:35;100209.38;;;6.81;100.00
24858;BME280;12935;50.782;6.074;2022-11-30T13:29:21;100207.63;;;7.04;100.00
24858;BME280;12935;50.782;6.074;2022-11-30T13:32:05;100205.94;;;7.15;100.00
24858;BME280;12935;50.782;6.074;2022-11-30T13:34:32;100212.28;;;7.03;100.00
24858;BME280;12935;50.782;6.074;2022-11-30T13:37:04;100207.81;;;6.80;100.00
24858;BME280;12935;50.782;6.074;2022-11-30T13:44:32;100206.06;;;6.87;100.00
24858;BME280;12935;50.782;6.074;2022-11-30T13:46:59;100209.91;;;7.02;100.00
24858;BME280;12935;50.782;6.074;2022-11-30T13:49:32;100207.97;;;7.02;100.00
24858;BME280;12935;50.782;6.074;2022-11-30T13:51:59;100216.41;;;6.97;100.00
24858;BME280;12935;50.782;6.074;2022-11-30T13:54:36;100209.81;;;6.98;100.00
24858;BME280;12935;50.782;6.074;2022-11-30T13:57:14;100216.50;;;6.85;100.00
24858;BME280;12935;50.782;6.074;2022-11-30T13:59:45;100209.47;;;6.68;100.00
24858;BME280;12935;50.782;6.074;2022-11-30T14:13:03;100219.38;;;6.61;100.00
24858;BME280;12935;50.782;6.074;2022-11-30T14:21:01;100223.31;;;6.63;100.00
24858;BME280;12935;50.782;6.074;2022-11-30T14:23:32;100214.38;;;6.79;100.00
24858;BME280;12935;50.782;6.074;2022-11-30T14:26:06;100214.56;;;6.70;100.00
24858;BME280;12935;50.782;6.074;2022-11-30T14:28:57;100224.38;;;6.75;100.00
24858;BME280;12935;50.782;6.074;2022-11-30T14:31:26;100233.38;;;6.94;100.00
24858;BME280;12935;50.782;6.074;2022-11-30T14:33:55;100236.84;;;6.91;100.00
24858;BME280;12935;50.782;6.074;2022-11-30T14:36:27;100237.19;;;6.74;100.00